createdAt,value
2018-12-31T00:01:05.310Z,25.20
2018-12-31T00:02:15.422Z,23.50
2018-12-31T00:03:20.680Z,24.70
2018-12-31T00:04:25.964Z,24.63
2018-12-31T00:05:31.247Z,24.47
2018-12-31T00:06:36.536Z,24.40
2018-12-31T00:07:41.819Z,24.37
2018-12-31T00:08:47.123Z,24.70
2018-12-31T00:09:52.382Z,22.90
2018-12-31T00:10:57.573Z,22.50
2018-12-31T00:12:02.803Z,23.30
2018-12-31T00:13:08.102Z,24.10
2018-12-31T00:14:13.375Z,21.47
2018-12-31T00:15:18.670Z,23.13
2018-12-31T00:16:23.985Z,22.27
2018-12-31T00:17:29.145Z,22.23
2018-12-31T00:18:34.390Z,22.53
2018-12-31T00:19:39.618Z,25.43
2018-12-31T00:20:44.827Z,23.57
2018-12-31T00:21:50.044Z,27.77
2018-12-31T00:22:55.344Z,39.70
2018-12-31T00:24:00.712Z,24.50
2018-12-31T00:25:06.048Z,22.80
2018-12-31T00:26:11.296Z,23.53
2018-12-31T00:27:16.514Z,22.23
2018-12-31T00:28:21.831Z,21.83
2018-12-31T00:29:27.145Z,21.00
2018-12-31T00:30:32.368Z,21.17
2018-12-31T00:31:37.619Z,22.13
2018-12-31T00:32:42.887Z,21.60
2018-12-31T00:33:48.132Z,21.37
2018-12-31T00:34:53.539Z,20.23
2018-12-31T00:35:58.724Z,21.37
2018-12-31T00:37:04.047Z,22.10
2018-12-31T00:38:09.297Z,21.17
2018-12-31T00:39:14.514Z,20.93
2018-12-31T00:40:19.861Z,19.90
2018-12-31T00:41:25.134Z,21.93
2018-12-31T00:42:30.272Z,20.77
2018-12-31T00:43:35.487Z,21.40
2018-12-31T00:44:40.759Z,20.63
2018-12-31T00:45:46.063Z,19.13
2018-12-31T00:46:51.235Z,20.43
2018-12-31T00:47:56.460Z,20.63
2018-12-31T00:49:01.758Z,20.63
2018-12-31T00:50:07.881Z,20.73
2018-12-31T00:51:13.160Z,20.13
2018-12-31T00:52:18.337Z,19.87
2018-12-31T00:53:23.622Z,20.03
2018-12-31T00:54:28.786Z,20.30
2018-12-31T00:55:34.968Z,20.63
2018-12-31T00:56:40.259Z,19.27
2018-12-31T00:57:45.574Z,21.23
2018-12-31T00:58:50.913Z,20.83
2018-12-31T00:59:56.123Z,20.83
2018-12-31T01:01:01.380Z,20.67
2018-12-31T01:02:06.682Z,19.40
2018-12-31T01:03:11.868Z,20.23
2018-12-31T01:04:17.142Z,21.80
2018-12-31T01:05:22.406Z,20.60
2018-12-31T01:06:27.651Z,20.50
2018-12-31T01:07:32.949Z,21.40
2018-12-31T01:08:38.172Z,20.73
2018-12-31T01:09:43.446Z,18.73
2018-12-31T01:10:48.751Z,19.90
2018-12-31T01:11:53.927Z,19.23
2018-12-31T01:12:59.215Z,18.83
2018-12-31T01:14:05.342Z,20.10
2018-12-31T01:15:10.496Z,18.53
2018-12-31T01:16:15.763Z,19.70
2018-12-31T01:17:21.052Z,18.47
2018-12-31T01:18:26.437Z,19.67
2018-12-31T01:19:31.685Z,19.40
2018-12-31T01:20:36.955Z,19.80
2018-12-31T01:21:42.142Z,18.87
2018-12-31T01:22:47.418Z,19.57
2018-12-31T01:23:52.678Z,18.83
2018-12-31T01:24:57.940Z,18.70
2018-12-31T01:26:03.274Z,19.63
2018-12-31T01:27:08.458Z,18.67
2018-12-31T01:28:13.761Z,18.73
2018-12-31T01:29:18.967Z,18.93
2018-12-31T01:30:24.278Z,19.03
2018-12-31T01:31:29.549Z,19.67
2018-12-31T01:32:34.828Z,19.63
2018-12-31T01:33:40.076Z,18.47
2018-12-31T01:34:45.239Z,19.27
2018-12-31T01:35:50.503Z,19.20
2018-12-31T01:36:55.804Z,19.07
2018-12-31T01:38:01.074Z,17.57
2018-12-31T01:39:07.205Z,17.70
2018-12-31T01:40:12.395Z,19.13
2018-12-31T01:41:17.644Z,18.70
2018-12-31T01:42:22.911Z,19.73
2018-12-31T01:43:28.175Z,18.53
2018-12-31T01:44:33.436Z,19.67
2018-12-31T01:45:38.587Z,18.20
2018-12-31T01:46:43.771Z,18.87
2018-12-31T01:47:49.028Z,18.83
2018-12-31T01:48:54.280Z,17.80
2018-12-31T01:49:59.459Z,18.17
2018-12-31T01:51:11.343Z,17.87
2018-12-31T01:52:11.674Z,17.67
2018-12-31T01:53:16.918Z,16.93
2018-12-31T01:54:22.170Z,18.00
2018-12-31T01:55:27.496Z,18.27
2018-12-31T01:56:32.678Z,17.87
2018-12-31T01:57:38.043Z,18.03
2018-12-31T01:58:43.292Z,16.90
2018-12-31T01:59:48.491Z,16.80
2018-12-31T02:00:53.768Z,16.47
2018-12-31T02:01:59.027Z,17.67
2018-12-31T02:03:04.309Z,17.33
2018-12-31T02:04:09.596Z,16.50
2018-12-31T02:05:14.819Z,17.60
2018-12-31T02:06:20.082Z,17.37
2018-12-31T02:07:25.275Z,16.53
2018-12-31T02:08:30.612Z,17.50
2018-12-31T02:09:36.358Z,16.57
2018-12-31T02:10:41.706Z,17.63
2018-12-31T02:11:46.959Z,17.90
2018-12-31T02:12:52.244Z,16.60
2018-12-31T02:13:57.553Z,16.87
2018-12-31T02:15:02.855Z,17.47
2018-12-31T02:16:08.273Z,17.63
2018-12-31T02:17:13.539Z,16.83
2018-12-31T02:18:18.722Z,16.20
2018-12-31T02:19:24.004Z,16.00
2018-12-31T02:20:29.412Z,17.17
2018-12-31T02:21:34.693Z,16.47
2018-12-31T02:22:39.943Z,17.53
2018-12-31T02:23:45.183Z,17.97
2018-12-31T02:24:50.485Z,17.17
2018-12-31T02:25:55.756Z,16.77
2018-12-31T02:27:01.009Z,17.67
2018-12-31T02:28:06.308Z,18.17
2018-12-31T02:29:11.504Z,18.20
2018-12-31T02:30:16.966Z,18.03
2018-12-31T02:31:22.202Z,19.17
2018-12-31T02:32:27.407Z,19.10
2018-12-31T02:33:32.623Z,18.47
2018-12-31T02:34:37.990Z,18.90
2018-12-31T02:35:43.295Z,18.97
2018-12-31T02:36:48.582Z,18.77
2018-12-31T02:37:53.843Z,20.20
2018-12-31T02:38:59.133Z,20.37
2018-12-31T02:40:04.466Z,20.63
2018-12-31T02:41:09.805Z,19.43
2018-12-31T02:42:14.869Z,20.87
2018-12-31T02:43:20.045Z,21.53
2018-12-31T02:44:26.225Z,20.43
2018-12-31T02:45:31.570Z,21.13
2018-12-31T02:46:36.863Z,21.60
2018-12-31T02:47:42.045Z,21.00
2018-12-31T02:48:47.272Z,21.03
2018-12-31T02:49:52.524Z,21.57
2018-12-31T02:50:57.864Z,22.37
2018-12-31T02:52:03.067Z,22.37
2018-12-31T02:53:08.387Z,23.00
2018-12-31T02:54:13.584Z,21.97
2018-12-31T02:55:18.915Z,22.20
2018-12-31T02:56:24.116Z,23.10
2018-12-31T02:57:29.581Z,22.13
2018-12-31T02:58:34.792Z,21.67
2018-12-31T02:59:40.085Z,24.07
2018-12-31T03:00:45.372Z,23.27
2018-12-31T03:01:50.653Z,24.00
2018-12-31T03:02:55.888Z,21.50
2018-12-31T03:04:01.110Z,23.83
2018-12-31T03:05:07.510Z,23.60
2018-12-31T03:06:12.803Z,23.83
2018-12-31T03:07:18.025Z,23.37
2018-12-31T03:08:23.194Z,21.83
2018-12-31T03:09:29.395Z,24.30
2018-12-31T03:10:34.696Z,24.23
2018-12-31T03:11:39.964Z,24.83
2018-12-31T03:12:45.219Z,26.07
2018-12-31T03:13:50.614Z,25.13
2018-12-31T03:14:55.860Z,25.00
2018-12-31T03:16:01.165Z,25.20
2018-12-31T03:17:06.418Z,25.27
2018-12-31T03:18:11.814Z,24.07
2018-12-31T03:19:17.081Z,24.97
2018-12-31T03:20:22.415Z,24.47
2018-12-31T03:21:27.707Z,25.73
2018-12-31T03:22:33.027Z,25.03
2018-12-31T03:23:38.285Z,25.93
2018-12-31T03:24:43.566Z,24.87
2018-12-31T03:25:48.926Z,25.70
2018-12-31T03:26:54.099Z,24.30
2018-12-31T03:27:59.290Z,24.93
2018-12-31T03:29:04.533Z,24.47
2018-12-31T03:30:09.816Z,25.83
2018-12-31T03:31:15.056Z,23.57
2018-12-31T03:32:20.351Z,25.50
2018-12-31T03:33:25.605Z,23.23
2018-12-31T03:34:30.911Z,23.60
2018-12-31T03:35:36.273Z,22.93
2018-12-31T03:36:41.553Z,22.73
2018-12-31T03:37:46.801Z,23.07
2018-12-31T03:38:52.007Z,24.27
2018-12-31T03:39:57.292Z,22.83
2018-12-31T03:41:02.908Z,23.27
2018-12-31T03:42:08.192Z,22.47
2018-12-31T03:43:13.506Z,23.00
2018-12-31T03:44:19.792Z,21.83
2018-12-31T03:45:25.020Z,23.37
2018-12-31T03:46:30.352Z,22.30
2018-12-31T03:47:35.664Z,22.23
2018-12-31T03:48:40.988Z,22.10
2018-12-31T03:49:46.151Z,22.80
2018-12-31T03:50:51.499Z,21.37
2018-12-31T03:51:56.652Z,22.27
2018-12-31T03:53:01.948Z,21.87
2018-12-31T03:54:07.303Z,21.90
2018-12-31T03:55:12.600Z,22.70
2018-12-31T03:56:17.914Z,23.53
2018-12-31T03:57:23.113Z,22.73
2018-12-31T03:58:28.289Z,22.90
2018-12-31T03:59:33.596Z,22.10
2018-12-31T04:00:38.954Z,20.97
2018-12-31T04:01:44.136Z,22.13
2018-12-31T04:02:49.390Z,21.70
2018-12-31T04:03:54.491Z,21.80
2018-12-31T04:04:59.827Z,21.60
2018-12-31T04:06:05.001Z,21.33
2018-12-31T04:07:10.288Z,22.73
2018-12-31T04:08:15.562Z,22.13
2018-12-31T04:09:20.836Z,22.90
2018-12-31T04:10:26.220Z,21.43
2018-12-31T04:11:31.487Z,22.87
2018-12-31T04:12:36.846Z,21.83
2018-12-31T04:13:42.192Z,22.77
2018-12-31T04:14:47.464Z,21.70
2018-12-31T04:15:52.734Z,21.90
2018-12-31T04:16:58.036Z,22.30
2018-12-31T04:18:03.403Z,21.57
2018-12-31T04:19:08.715Z,22.03
2018-12-31T04:20:13.930Z,21.87
2018-12-31T04:21:19.182Z,22.03
2018-12-31T04:22:24.440Z,22.53
2018-12-31T04:23:29.786Z,22.90
2018-12-31T04:24:35.307Z,23.43
2018-12-31T04:25:40.661Z,21.80
2018-12-31T04:26:45.817Z,22.83
2018-12-31T04:27:51.129Z,23.37
2018-12-31T04:28:56.424Z,22.80
2018-12-31T04:30:01.715Z,23.63
2018-12-31T04:31:07.113Z,23.47
2018-12-31T04:32:12.412Z,23.93
2018-12-31T04:33:17.659Z,22.63
2018-12-31T04:34:22.915Z,23.40
2018-12-31T04:35:28.167Z,23.17
2018-12-31T04:36:33.325Z,21.80
2018-12-31T04:37:38.471Z,22.97
2018-12-31T04:38:43.610Z,23.30
2018-12-31T04:39:48.790Z,22.27
2018-12-31T04:40:53.986Z,21.43
2018-12-31T04:41:59.303Z,22.90
2018-12-31T04:43:04.419Z,21.73
2018-12-31T04:44:09.604Z,22.73
2018-12-31T04:45:14.845Z,21.40
2018-12-31T04:46:20.096Z,22.30
2018-12-31T04:47:25.237Z,22.77
2018-12-31T04:48:30.351Z,21.77
2018-12-31T04:49:35.610Z,22.53
2018-12-31T04:50:40.844Z,22.93
2018-12-31T04:51:46.060Z,22.57
2018-12-31T04:52:51.214Z,22.07
2018-12-31T04:53:56.427Z,22.27
2018-12-31T04:55:01.694Z,21.73
2018-12-31T04:56:06.915Z,21.73
2018-12-31T04:57:12.042Z,23.07
2018-12-31T04:58:22.916Z,23.37
2018-12-31T04:59:24.059Z,22.27
2018-12-31T05:00:29.164Z,23.33
2018-12-31T05:01:34.291Z,21.97
2018-12-31T05:02:39.421Z,22.90
2018-12-31T05:03:44.559Z,23.50
2018-12-31T05:04:49.740Z,22.00
2018-12-31T05:05:54.949Z,22.07
2018-12-31T05:07:00.087Z,23.37
2018-12-31T05:08:05.207Z,24.10
2018-12-31T05:09:10.336Z,22.53
2018-12-31T05:10:15.621Z,22.97
2018-12-31T05:11:20.698Z,23.27
2018-12-31T05:12:25.826Z,22.87
2018-12-31T05:13:30.879Z,24.43
2018-12-31T05:14:36.041Z,25.30
2018-12-31T05:15:41.245Z,22.60
2018-12-31T05:16:46.467Z,24.90
2018-12-31T05:17:51.633Z,24.40
2018-12-31T05:18:56.800Z,25.20
2018-12-31T05:20:02.082Z,25.00
2018-12-31T05:21:07.353Z,24.63
2018-12-31T05:22:12.471Z,24.33
2018-12-31T05:23:17.637Z,24.40
2018-12-31T05:24:22.805Z,25.00
2018-12-31T05:25:28.012Z,23.67
2018-12-31T05:26:33.173Z,25.03
2018-12-31T05:27:38.290Z,25.30
2018-12-31T05:28:43.533Z,23.63
2018-12-31T05:29:48.715Z,25.73
2018-12-31T05:30:53.967Z,25.03
2018-12-31T05:31:59.094Z,25.33
2018-12-31T05:33:04.514Z,25.80
2018-12-31T05:34:09.659Z,26.03
2018-12-31T05:35:14.816Z,25.17
2018-12-31T05:36:19.978Z,25.93
2018-12-31T05:37:25.148Z,23.53
2018-12-31T05:38:30.380Z,25.03
2018-12-31T05:39:35.552Z,25.80
2018-12-31T05:40:40.701Z,25.87
2018-12-31T05:41:45.866Z,23.60
2018-12-31T05:42:51.100Z,24.37
2018-12-31T05:43:56.253Z,26.67
2018-12-31T05:45:01.373Z,25.47
2018-12-31T05:46:06.586Z,27.33
2018-12-31T05:47:11.860Z,26.67
2018-12-31T05:48:17.104Z,27.90
2018-12-31T05:49:22.218Z,26.57
2018-12-31T05:50:27.445Z,25.93
2018-12-31T05:51:33.591Z,26.53
2018-12-31T05:52:38.856Z,26.90
2018-12-31T05:53:43.998Z,25.97
2018-12-31T05:54:49.075Z,26.83
2018-12-31T05:55:54.293Z,26.63
2018-12-31T05:56:59.483Z,26.20
2018-12-31T05:58:05.147Z,26.10
2018-12-31T05:59:10.265Z,27.73
2018-12-31T06:00:15.483Z,26.73
2018-12-31T06:01:20.615Z,28.30
2018-12-31T06:02:25.778Z,27.17
2018-12-31T06:03:30.924Z,28.60
2018-12-31T06:04:36.055Z,27.93
2018-12-31T06:05:41.177Z,28.50
2018-12-31T06:06:46.361Z,28.03
2018-12-31T06:07:51.501Z,28.30
2018-12-31T06:08:56.656Z,28.23
2018-12-31T06:10:01.862Z,28.70
2018-12-31T06:11:07.201Z,29.87
2018-12-31T06:12:12.358Z,26.77
2018-12-31T06:13:17.609Z,29.53
2018-12-31T06:14:22.770Z,29.27
2018-12-31T06:15:27.937Z,30.07
2018-12-31T06:16:33.194Z,29.37
2018-12-31T06:17:38.460Z,29.40
2018-12-31T06:18:43.632Z,28.00
2018-12-31T06:19:48.858Z,30.97
2018-12-31T06:20:54.109Z,28.10
2018-12-31T06:21:59.372Z,28.63
2018-12-31T06:23:04.701Z,28.33
2018-12-31T06:24:10.642Z,27.73
2018-12-31T06:25:15.921Z,28.03
2018-12-31T06:26:21.102Z,28.40
2018-12-31T06:27:26.367Z,28.70
2018-12-31T06:28:31.496Z,26.97
2018-12-31T06:29:36.631Z,27.07
2018-12-31T06:30:41.797Z,28.10
2018-12-31T06:31:47.010Z,27.77
2018-12-31T06:32:52.248Z,28.13
2018-12-31T06:33:57.386Z,26.87
2018-12-31T06:35:02.630Z,27.40
2018-12-31T06:36:08.792Z,27.53
2018-12-31T06:37:14.048Z,27.43
2018-12-31T06:38:19.187Z,26.37
2018-12-31T06:39:24.337Z,26.50
2018-12-31T06:40:29.573Z,26.93
2018-12-31T06:41:34.843Z,24.73
2018-12-31T06:42:40.060Z,25.80
2018-12-31T06:43:45.290Z,25.60
2018-12-31T06:44:50.493Z,25.60
2018-12-31T06:45:55.788Z,25.03
2018-12-31T06:47:01.000Z,24.83
2018-12-31T06:48:06.380Z,24.33
2018-12-31T06:49:11.611Z,24.63
2018-12-31T06:50:16.756Z,24.63
2018-12-31T06:51:21.997Z,25.07
2018-12-31T06:52:27.237Z,24.63
2018-12-31T06:53:32.406Z,24.73
2018-12-31T06:54:37.587Z,25.17
2018-12-31T06:55:42.827Z,23.83
2018-12-31T06:56:48.039Z,23.77
2018-12-31T06:57:53.267Z,25.60
2018-12-31T06:58:58.392Z,23.67
2018-12-31T07:00:03.775Z,23.43
2018-12-31T07:01:09.909Z,24.40
2018-12-31T07:02:15.150Z,24.23
2018-12-31T07:03:20.287Z,23.50
2018-12-31T07:04:25.451Z,25.30
2018-12-31T07:05:30.606Z,23.50
2018-12-31T07:06:35.851Z,23.97
2018-12-31T07:07:41.092Z,24.47
2018-12-31T07:08:46.322Z,23.27
2018-12-31T07:09:51.474Z,22.80
2018-12-31T07:10:56.689Z,23.97
2018-12-31T07:12:01.945Z,23.57
2018-12-31T07:13:07.141Z,22.83
2018-12-31T07:14:12.350Z,24.03
2018-12-31T07:15:17.421Z,22.77
2018-12-31T07:16:23.623Z,23.10
2018-12-31T07:17:28.799Z,21.63
2018-12-31T07:18:34.006Z,23.70
2018-12-31T07:19:40.460Z,22.77
2018-12-31T07:20:45.716Z,22.77
2018-12-31T07:21:50.951Z,22.97
2018-12-31T07:22:56.028Z,21.93
2018-12-31T07:24:01.145Z,22.17
2018-12-31T07:25:06.398Z,23.37
2018-12-31T07:26:11.692Z,22.17
2018-12-31T07:27:16.749Z,21.70
2018-12-31T07:28:21.862Z,20.37
2018-12-31T07:29:27.070Z,21.90
2018-12-31T07:30:33.191Z,21.83
2018-12-31T07:31:38.343Z,21.67
2018-12-31T07:32:43.806Z,20.67
2018-12-31T07:33:48.935Z,21.10
2018-12-31T07:34:54.075Z,20.60
2018-12-31T07:35:59.173Z,20.93
2018-12-31T07:37:04.411Z,21.43
2018-12-31T07:38:09.616Z,21.90
2018-12-31T07:39:14.716Z,20.47
2018-12-31T07:40:19.872Z,20.23
2018-12-31T07:41:25.097Z,20.17
2018-12-31T07:42:30.244Z,20.53
2018-12-31T07:43:35.384Z,19.43
2018-12-31T07:44:40.633Z,19.80
2018-12-31T07:45:45.885Z,21.43
2018-12-31T07:46:51.132Z,20.33
2018-12-31T07:47:56.266Z,20.83
2018-12-31T07:49:01.422Z,20.93
2018-12-31T07:50:06.611Z,21.07
2018-12-31T07:51:12.108Z,21.43
2018-12-31T07:52:17.252Z,19.90
2018-12-31T07:53:22.510Z,20.57
2018-12-31T07:54:27.679Z,21.50
2018-12-31T07:55:32.936Z,20.30
2018-12-31T07:56:38.147Z,19.87
2018-12-31T07:57:43.314Z,20.53
2018-12-31T07:58:48.449Z,20.77
2018-12-31T07:59:53.588Z,21.00
2018-12-31T08:00:58.827Z,20.67
2018-12-31T08:02:03.996Z,19.87
2018-12-31T08:03:09.169Z,18.53
2018-12-31T08:04:16.034Z,19.83
2018-12-31T08:05:21.260Z,19.23
2018-12-31T08:06:26.429Z,18.53
2018-12-31T08:07:31.670Z,17.93
2018-12-31T08:08:36.864Z,20.80
2018-12-31T08:09:42.029Z,23.17
2018-12-31T08:10:47.235Z,19.63
2018-12-31T08:11:52.407Z,20.27
2018-12-31T08:12:57.515Z,18.33
2018-12-31T08:14:02.682Z,19.90
2018-12-31T08:15:08.106Z,19.20
2018-12-31T08:16:13.407Z,18.33
2018-12-31T08:17:18.664Z,18.50
2018-12-31T08:18:23.824Z,17.90
2018-12-31T08:19:28.966Z,18.37
2018-12-31T08:20:34.117Z,18.30
2018-12-31T08:21:39.288Z,18.70
2018-12-31T08:22:44.472Z,19.17
2018-12-31T08:23:49.588Z,18.67
2018-12-31T08:24:54.742Z,17.47
2018-12-31T08:25:59.909Z,18.73
2018-12-31T08:27:04.974Z,18.63
2018-12-31T08:28:10.244Z,16.97
2018-12-31T08:29:15.439Z,17.97
2018-12-31T08:30:20.908Z,16.37
2018-12-31T08:31:26.055Z,17.00
2018-12-31T08:32:31.318Z,17.53
2018-12-31T08:33:36.466Z,18.30
2018-12-31T08:34:41.630Z,18.23
2018-12-31T08:35:46.870Z,18.13
2018-12-31T08:36:52.037Z,17.87
2018-12-31T08:37:57.273Z,17.80
2018-12-31T08:39:02.488Z,16.77
2018-12-31T08:40:08.506Z,16.83
2018-12-31T08:41:13.824Z,16.80
2018-12-31T08:42:19.072Z,17.03
2018-12-31T08:43:24.194Z,16.30
2018-12-31T08:44:29.463Z,15.87
2018-12-31T08:45:34.599Z,17.37
2018-12-31T08:46:39.784Z,15.10
2018-12-31T08:47:44.886Z,14.87
2018-12-31T08:48:49.960Z,15.23
2018-12-31T08:49:55.116Z,14.93
2018-12-31T08:51:01.244Z,15.50
2018-12-31T08:52:06.446Z,14.47
2018-12-31T08:53:11.623Z,14.17
2018-12-31T08:54:16.838Z,14.37
2018-12-31T08:55:22.077Z,14.60
2018-12-31T08:56:27.178Z,14.57
2018-12-31T08:57:32.324Z,14.30
2018-12-31T08:58:37.491Z,13.70
2018-12-31T08:59:42.616Z,14.10
2018-12-31T09:00:47.771Z,13.90
2018-12-31T09:01:52.897Z,13.33
2018-12-31T09:02:58.377Z,13.57
2018-12-31T09:04:03.527Z,13.40
2018-12-31T09:05:08.689Z,12.33
2018-12-31T09:06:13.947Z,13.23
2018-12-31T09:07:19.176Z,13.97
2018-12-31T09:08:24.415Z,13.67
2018-12-31T09:09:29.534Z,13.93
2018-12-31T09:10:34.807Z,12.90
2018-12-31T09:11:40.040Z,12.93
2018-12-31T09:12:45.201Z,13.33
2018-12-31T09:13:50.401Z,12.70
2018-12-31T09:14:55.627Z,11.97
2018-12-31T09:16:00.805Z,12.30
2018-12-31T09:17:06.060Z,12.70
2018-12-31T09:18:11.293Z,13.27
2018-12-31T09:19:16.561Z,13.43
2018-12-31T09:20:21.827Z,12.63
2018-12-31T09:21:27.025Z,13.33
2018-12-31T09:22:32.205Z,13.03
2018-12-31T09:23:37.458Z,12.47
2018-12-31T09:24:44.711Z,13.10
2018-12-31T09:25:49.494Z,14.30
2018-12-31T09:26:54.645Z,12.83
2018-12-31T09:27:59.817Z,12.80
2018-12-31T09:29:05.053Z,12.00
2018-12-31T09:30:10.217Z,11.80
2018-12-31T09:31:15.527Z,13.17
2018-12-31T09:32:20.624Z,12.40
2018-12-31T09:33:25.857Z,13.83
2018-12-31T09:34:31.075Z,12.83
2018-12-31T09:35:36.225Z,13.50
2018-12-31T09:36:41.678Z,13.97
2018-12-31T09:37:46.818Z,12.03
2018-12-31T09:38:52.013Z,13.20
2018-12-31T09:39:57.228Z,12.30
2018-12-31T09:41:02.449Z,13.37
2018-12-31T09:42:07.689Z,12.87
2018-12-31T09:43:13.068Z,11.43
2018-12-31T09:44:18.769Z,12.33
2018-12-31T09:45:23.905Z,12.53
2018-12-31T09:46:29.035Z,12.80
2018-12-31T09:47:34.179Z,12.50
2018-12-31T09:48:39.348Z,12.73
2018-12-31T09:49:44.469Z,12.77
2018-12-31T09:50:49.917Z,12.53
2018-12-31T09:51:55.056Z,12.87
2018-12-31T09:53:00.339Z,12.47
2018-12-31T09:54:05.631Z,11.47
2018-12-31T09:55:10.976Z,12.03
2018-12-31T09:56:16.155Z,12.30
2018-12-31T09:57:21.337Z,12.63
2018-12-31T09:58:26.573Z,10.93
2018-12-31T09:59:32.256Z,12.17
2018-12-31T10:00:37.507Z,13.10
2018-12-31T10:01:42.602Z,12.70
2018-12-31T10:02:47.935Z,12.33
2018-12-31T10:03:53.172Z,11.40
2018-12-31T10:04:58.471Z,12.07
2018-12-31T10:06:03.660Z,12.10
2018-12-31T10:07:08.909Z,11.87
2018-12-31T10:08:14.136Z,13.03
2018-12-31T10:09:20.003Z,12.57
2018-12-31T10:10:25.396Z,11.87
2018-12-31T10:11:30.758Z,11.70
2018-12-31T10:12:39.573Z,12.97
2018-12-31T10:13:44.773Z,11.83
2018-12-31T10:14:49.920Z,11.77
2018-12-31T10:15:55.092Z,12.53
2018-12-31T10:17:00.265Z,13.07
2018-12-31T10:18:05.498Z,12.53
2018-12-31T10:19:10.763Z,12.87
2018-12-31T10:20:15.939Z,12.13
2018-12-31T10:21:21.160Z,13.23
2018-12-31T10:22:26.410Z,12.80
2018-12-31T10:23:31.728Z,12.23
2018-12-31T10:24:36.906Z,13.37
2018-12-31T10:25:42.171Z,13.37
2018-12-31T10:26:47.370Z,13.17
2018-12-31T10:27:52.663Z,11.87
2018-12-31T10:28:57.856Z,12.47
2018-12-31T10:30:03.101Z,14.23
2018-12-31T10:31:08.238Z,13.83
2018-12-31T10:32:13.568Z,14.07
2018-12-31T10:33:19.546Z,14.50
2018-12-31T10:34:23.786Z,13.83
2018-12-31T10:35:29.048Z,14.93
2018-12-31T10:36:34.294Z,13.87
2018-12-31T10:37:39.589Z,13.93
2018-12-31T10:38:51.083Z,14.87
2018-12-31T10:39:51.612Z,15.30
2018-12-31T10:40:56.833Z,14.13
2018-12-31T10:42:02.113Z,15.27
2018-12-31T10:43:07.444Z,14.60
2018-12-31T10:44:12.769Z,14.70
2018-12-31T10:45:18.047Z,14.93
2018-12-31T10:46:23.370Z,16.80
2018-12-31T10:47:28.740Z,13.90
2018-12-31T10:48:33.992Z,15.70
2018-12-31T10:49:39.324Z,15.67
2018-12-31T10:50:44.585Z,14.67
2018-12-31T10:51:49.950Z,15.33
2018-12-31T10:52:55.235Z,14.63
2018-12-31T10:54:00.493Z,16.00
2018-12-31T10:55:06.202Z,14.97
2018-12-31T10:56:11.775Z,14.87
2018-12-31T10:57:18.016Z,14.73
2018-12-31T10:58:24.397Z,16.40
2018-12-31T10:59:29.636Z,14.93
2018-12-31T11:00:34.952Z,15.47
2018-12-31T11:01:41.181Z,15.20
2018-12-31T11:02:46.430Z,16.00
2018-12-31T11:03:51.626Z,13.80
2018-12-31T11:04:57.099Z,15.37
2018-12-31T11:06:02.407Z,14.13
2018-12-31T11:07:07.722Z,15.70
2018-12-31T11:08:12.933Z,15.60
2018-12-31T11:09:18.175Z,14.97
2018-12-31T11:10:23.464Z,14.77
2018-12-31T11:11:28.767Z,14.60
2018-12-31T11:12:34.161Z,14.60
2018-12-31T11:13:39.484Z,15.47
2018-12-31T11:14:44.936Z,16.23
2018-12-31T11:15:50.224Z,14.77
2018-12-31T11:16:55.608Z,14.27
2018-12-31T11:18:00.931Z,15.17
2018-12-31T11:19:06.219Z,14.63
2018-12-31T11:20:11.447Z,13.60
2018-12-31T11:21:16.750Z,19.13
2018-12-31T11:22:22.042Z,17.20
2018-12-31T11:23:27.352Z,19.63
2018-12-31T11:24:32.636Z,22.97
2018-12-31T11:25:37.983Z,18.57
2018-12-31T11:26:43.285Z,21.97
2018-12-31T11:27:48.616Z,15.07
2018-12-31T11:28:53.823Z,14.87
2018-12-31T11:29:59.039Z,14.67
2018-12-31T11:31:04.276Z,14.80
2018-12-31T11:32:09.540Z,14.30
2018-12-31T11:33:14.919Z,15.80
2018-12-31T11:34:20.197Z,15.87
2018-12-31T11:35:25.551Z,14.90
2018-12-31T11:36:32.469Z,14.73
2018-12-31T11:37:37.930Z,15.43
2018-12-31T11:38:43.181Z,14.27
2018-12-31T11:39:48.468Z,14.97
2018-12-31T11:40:53.762Z,14.77
2018-12-31T11:41:59.064Z,13.53
2018-12-31T11:43:04.434Z,14.20
2018-12-31T11:44:09.617Z,13.90
2018-12-31T11:45:14.936Z,15.63
2018-12-31T11:46:20.288Z,16.33
2018-12-31T11:47:25.601Z,15.47
2018-12-31T11:48:30.808Z,14.70
2018-12-31T11:49:36.101Z,14.97
2018-12-31T11:50:41.399Z,15.17
2018-12-31T11:51:46.700Z,15.20
2018-12-31T11:52:51.914Z,14.27
2018-12-31T11:53:57.193Z,15.87
2018-12-31T11:55:03.518Z,14.87
2018-12-31T11:56:09.972Z,14.17
2018-12-31T11:57:15.275Z,14.60
2018-12-31T11:58:20.472Z,14.33
2018-12-31T11:59:25.644Z,13.90
2018-12-31T12:00:30.886Z,15.60
2018-12-31T12:01:36.123Z,15.90
2018-12-31T12:02:41.415Z,14.90
2018-12-31T12:03:46.719Z,14.37
2018-12-31T12:04:52.035Z,15.27
2018-12-31T12:05:57.254Z,14.10
2018-12-31T12:07:02.602Z,14.70
2018-12-31T12:08:07.877Z,15.20
2018-12-31T12:09:13.142Z,14.47
2018-12-31T12:10:18.748Z,13.97
2018-12-31T12:11:24.015Z,13.70
2018-12-31T12:12:29.302Z,15.47
2018-12-31T12:13:34.574Z,14.00
2018-12-31T12:14:39.792Z,13.40
2018-12-31T12:15:45.130Z,15.00
2018-12-31T12:16:50.406Z,14.63
2018-12-31T12:17:55.675Z,14.17
2018-12-31T12:19:00.933Z,13.60
2018-12-31T12:20:06.404Z,14.03
2018-12-31T12:21:11.754Z,14.33
2018-12-31T12:22:17.240Z,13.43
2018-12-31T12:23:22.948Z,14.93
2018-12-31T12:24:28.536Z,13.97
2018-12-31T12:25:33.870Z,12.30
2018-12-31T12:26:39.209Z,13.97
2018-12-31T12:27:44.392Z,14.10
2018-12-31T12:28:49.692Z,14.30
2018-12-31T12:29:55.082Z,13.77
2018-12-31T12:31:00.368Z,14.43
2018-12-31T12:32:05.704Z,13.93
2018-12-31T12:33:11.096Z,14.57
2018-12-31T12:34:16.291Z,14.23
2018-12-31T12:35:21.623Z,14.23
2018-12-31T12:36:26.980Z,14.10
2018-12-31T12:37:32.270Z,13.63
2018-12-31T12:38:37.567Z,14.43
2018-12-31T12:39:42.854Z,12.87
2018-12-31T12:40:48.126Z,13.87
2018-12-31T12:41:53.429Z,13.60
2018-12-31T12:42:58.702Z,13.60
2018-12-31T12:44:03.921Z,13.63
2018-12-31T12:45:09.237Z,13.47
2018-12-31T12:46:14.506Z,13.23
2018-12-31T12:47:19.783Z,14.17
2018-12-31T12:48:25.059Z,13.93
2018-12-31T12:49:30.266Z,13.57
2018-12-31T12:50:35.554Z,14.77
2018-12-31T12:51:40.882Z,15.13
2018-12-31T12:52:46.141Z,15.30
2018-12-31T12:53:51.507Z,14.83
2018-12-31T12:54:57.173Z,14.43
2018-12-31T12:56:02.462Z,13.63
2018-12-31T12:57:07.797Z,14.07
2018-12-31T12:58:12.965Z,13.83
2018-12-31T12:59:18.279Z,14.10
2018-12-31T13:00:23.574Z,14.80
2018-12-31T13:01:28.941Z,14.63
2018-12-31T13:02:34.275Z,14.47
2018-12-31T13:03:39.524Z,14.47
2018-12-31T13:04:44.837Z,15.13
2018-12-31T13:05:50.118Z,14.80
2018-12-31T13:06:55.368Z,14.27
2018-12-31T13:08:00.779Z,14.20
2018-12-31T13:09:07.360Z,14.30
2018-12-31T13:10:12.595Z,14.90
2018-12-31T13:11:17.864Z,15.07
2018-12-31T13:12:23.051Z,14.10
2018-12-31T13:13:28.332Z,13.50
2018-12-31T13:14:33.623Z,15.17
2018-12-31T13:15:38.844Z,14.30
2018-12-31T13:16:44.155Z,15.00
2018-12-31T13:17:49.348Z,13.60
2018-12-31T13:18:54.614Z,13.90
2018-12-31T13:19:59.840Z,14.77
2018-12-31T13:21:05.043Z,14.43
2018-12-31T13:22:10.254Z,14.33
2018-12-31T13:23:15.589Z,14.63
2018-12-31T13:24:20.824Z,14.30
2018-12-31T13:25:26.426Z,13.13
2018-12-31T13:26:31.924Z,14.73
2018-12-31T13:27:37.251Z,14.53
2018-12-31T13:28:42.598Z,13.70
2018-12-31T13:29:47.853Z,14.43
2018-12-31T13:30:53.142Z,13.90
2018-12-31T13:31:58.442Z,13.63
2018-12-31T13:33:03.793Z,14.30
2018-12-31T13:34:09.177Z,14.13
2018-12-31T13:35:14.466Z,13.40
2018-12-31T13:36:19.678Z,13.43
2018-12-31T13:37:25.035Z,15.33
2018-12-31T13:38:30.374Z,14.80
2018-12-31T13:39:35.975Z,16.33
2018-12-31T13:40:41.194Z,13.00
2018-12-31T13:41:46.428Z,14.00
2018-12-31T13:42:51.753Z,13.90
2018-12-31T13:43:56.997Z,14.60
2018-12-31T13:45:02.321Z,14.37
2018-12-31T13:46:07.567Z,15.60
2018-12-31T13:47:12.875Z,13.73
2018-12-31T13:48:18.186Z,14.27
2018-12-31T13:49:23.537Z,14.20
2018-12-31T13:50:28.788Z,15.03
2018-12-31T13:51:34.176Z,13.60
2018-12-31T13:52:39.477Z,14.77
2018-12-31T13:53:44.820Z,13.83
2018-12-31T13:54:50.151Z,14.60
2018-12-31T13:55:55.666Z,13.60
2018-12-31T13:57:01.226Z,14.00
2018-12-31T13:58:06.892Z,13.93
2018-12-31T13:59:12.222Z,13.73
2018-12-31T14:00:17.482Z,13.80
2018-12-31T14:01:22.840Z,13.90